Cibolo, Texas
Current Conditions -  °F | °C
As of 12:58 PM on Saturday 25 Oct 2014 (Local Time) from KRND Reporting Station
Clear Clear  
Wind Chill: 83°   Ceiling: Unl
Heat Index: 83°   Visibility: 10mi
Dew Point: 56°   Wind: 6mph
Humidity: 39%   Direction: 260°W
Pressure: 30.17"   Gusts: NA
Location:  29.56°N, 98.23°W
Report Text: KRND 251758Z AUTO 26005KT 10SM CLR 28/13 A3017 RMK AO2 SLP210 T02840134 10284 20153 58011
Loading
Personal Weather Stations






























Interactive Weather Map
Tropical Storm Tracking
New forecast layout! Learn more

10-Day Weather Forecast

Advertisements
Track Severe Weather on mobile